createdAt,value
2022-11-05T00:00:15.436Z,6.93
2022-11-05T00:02:42.101Z,7.47
2022-11-05T00:05:09.957Z,7.22
2022-11-05T00:07:39.882Z,8.03
2022-11-05T00:10:10.135Z,7.97
2022-11-05T00:12:37.170Z,7.50
2022-11-05T00:15:05.796Z,7.85
2022-11-05T00:17:32.753Z,8.30
2022-11-05T00:19:59.544Z,7.60
2022-11-05T00:22:26.583Z,8.85
2022-11-05T00:24:53.234Z,7.88
2022-11-05T00:27:19.906Z,8.00
2022-11-05T00:29:46.567Z,8.32
2022-11-05T00:32:14.755Z,8.70
2022-11-05T00:34:41.424Z,7.90
2022-11-05T00:37:08.039Z,7.88
2022-11-05T00:39:34.681Z,7.90
2022-11-05T00:42:01.320Z,7.93
2022-11-05T00:44:27.982Z,7.53
2022-11-05T00:46:59.614Z,6.95
2022-11-05T00:49:27.944Z,8.38
2022-11-05T00:51:54.604Z,8.18
2022-11-05T00:54:21.206Z,8.35
2022-11-05T00:56:47.901Z,9.17
2022-11-05T00:59:14.584Z,8.82
2022-11-05T01:01:41.248Z,8.38
2022-11-05T01:04:07.981Z,7.97
2022-11-05T01:06:35.975Z,7.18
2022-11-05T01:09:02.684Z,7.13
2022-11-05T01:11:29.354Z,8.13
2022-11-05T01:13:55.989Z,8.38
2022-11-05T01:16:22.631Z,8.50
2022-11-05T01:18:49.236Z,7.82
2022-11-05T01:21:15.943Z,7.70
2022-11-05T01:23:44.000Z,6.53
2022-11-05T01:26:10.678Z,7.22
2022-11-05T01:28:37.388Z,18.48
2022-11-05T01:31:04.110Z,15.10
2022-11-05T01:33:30.839Z,16.90
2022-11-05T01:35:57.853Z,8.20
2022-11-05T01:38:24.570Z,7.57
2022-11-05T01:40:52.614Z,29.52
2022-11-05T01:43:20.993Z,7.57
2022-11-05T01:45:50.945Z,7.83
2022-11-05T01:48:21.535Z,6.15
2022-11-05T01:50:53.356Z,35.67
2022-11-05T01:53:25.483Z,16.95
2022-11-05T01:55:57.327Z,33.97
2022-11-05T01:58:29.000Z,22.83
2022-11-05T02:00:56.826Z,13.48
2022-11-05T02:03:24.776Z,9.90
2022-11-05T02:05:55.349Z,7.18
2022-11-05T02:08:34.554Z,14.20
2022-11-05T02:11:02.908Z,11.53
2022-11-05T02:13:29.545Z,7.50
2022-11-05T02:16:03.205Z,6.53
2022-11-05T02:18:39.257Z,6.97
2022-11-05T02:21:32.980Z,6.88
2022-11-05T02:24:20.962Z,6.57
2022-11-05T02:27:11.598Z,6.82
2022-11-05T02:30:03.035Z,7.30
2022-11-05T02:32:48.723Z,6.72
2022-11-05T02:35:22.901Z,7.53
2022-11-05T02:37:53.205Z,6.40
2022-11-05T02:40:27.249Z,6.65
2022-11-05T02:43:02.882Z,6.72
2022-11-05T02:45:40.418Z,6.72
2022-11-05T02:48:14.962Z,6.53
2022-11-05T02:50:50.444Z,7.80
2022-11-05T02:53:22.767Z,7.22
2022-11-05T02:55:53.891Z,7.88
2022-11-05T02:58:21.207Z,6.72
2022-11-05T03:00:50.202Z,6.90
2022-11-05T03:03:27.688Z,6.77
2022-11-05T03:06:19.154Z,7.28
2022-11-05T03:09:02.824Z,7.10
2022-11-05T03:11:32.580Z,6.13
2022-11-05T03:14:10.001Z,6.15
2022-11-05T03:16:40.610Z,5.30
2022-11-05T03:19:16.444Z,5.25
2022-11-05T03:21:47.031Z,5.28
2022-11-05T03:24:18.949Z,5.15
2022-11-05T03:26:50.996Z,4.75
2022-11-05T03:29:22.280Z,5.17
2022-11-05T03:31:52.115Z,5.07
2022-11-05T03:34:24.844Z,5.20
2022-11-05T03:36:55.525Z,5.40
2022-11-05T03:39:28.514Z,5.38
2022-11-05T03:41:56.938Z,5.10
2022-11-05T03:44:28.689Z,5.40
2022-11-05T03:47:02.167Z,6.18
2022-11-05T03:49:36.437Z,5.13
2022-11-05T03:52:07.336Z,5.22
2022-11-05T03:54:34.640Z,5.60
2022-11-05T03:57:06.703Z,5.32
2022-11-05T03:59:40.463Z,5.30
2022-11-05T04:02:07.549Z,6.45
2022-11-05T04:04:35.866Z,6.07
2022-11-05T04:07:02.492Z,6.07
2022-11-05T04:09:34.131Z,6.07
2022-11-05T04:12:00.794Z,5.75
2022-11-05T04:14:27.426Z,5.57
2022-11-05T04:16:54.092Z,6.05
2022-11-05T04:19:26.003Z,5.27
2022-11-05T04:21:54.210Z,5.28
2022-11-05T04:24:20.861Z,5.45
2022-11-05T04:26:47.539Z,5.10
2022-11-05T04:29:14.161Z,5.45
2022-11-05T04:31:40.830Z,4.90
2022-11-05T04:34:07.521Z,5.38
2022-11-05T04:36:34.160Z,4.95
2022-11-05T04:39:02.244Z,4.85
2022-11-05T04:41:28.948Z,5.60
2022-11-05T04:43:55.578Z,5.33
2022-11-05T04:46:22.217Z,5.35
2022-11-05T04:48:48.886Z,5.15
2022-11-05T04:51:15.513Z,5.50
2022-11-05T04:53:42.176Z,5.78
2022-11-05T04:56:11.078Z,5.57
2022-11-05T04:58:41.469Z,5.60
2022-11-05T05:01:12.583Z,6.68
2022-11-05T05:03:39.331Z,5.13
2022-11-05T05:06:06.413Z,5.60
2022-11-05T05:08:33.294Z,4.87
2022-11-05T05:11:02.039Z,5.93
2022-11-05T05:13:30.097Z,5.43
2022-11-05T05:15:56.777Z,6.00
2022-11-05T05:18:23.376Z,5.68
2022-11-05T05:20:50.018Z,5.07
2022-11-05T05:23:16.715Z,6.30
2022-11-05T05:25:43.362Z,5.97
2022-11-05T05:28:10.043Z,5.53
2022-11-05T05:30:38.035Z,6.03
2022-11-05T05:33:04.800Z,5.97
2022-11-05T05:35:31.496Z,6.38
2022-11-05T05:37:58.185Z,6.10
2022-11-05T05:40:24.960Z,6.93
2022-11-05T05:42:53.848Z,6.35
2022-11-05T05:45:20.793Z,6.97
2022-11-05T05:47:48.765Z,7.95
2022-11-05T05:50:15.518Z,6.70
2022-11-05T05:52:42.157Z,6.57
2022-11-05T05:55:09.613Z,7.13
2022-11-05T05:57:36.348Z,7.50
2022-11-05T06:00:07.248Z,8.82
2022-11-05T06:02:33.932Z,8.45
2022-11-05T06:05:02.043Z,9.25
2022-11-05T06:07:31.859Z,9.63
2022-11-05T06:10:02.768Z,10.00
2022-11-05T06:12:29.666Z,9.25
2022-11-05T06:14:56.310Z,9.52
2022-11-05T06:17:22.932Z,9.38
2022-11-05T06:19:49.566Z,11.63
2022-11-05T06:22:17.514Z,10.47
2022-11-05T06:24:44.176Z,10.00
2022-11-05T06:27:10.781Z,9.88
2022-11-05T06:29:37.389Z,9.55
2022-11-05T06:32:04.305Z,9.90
2022-11-05T06:34:30.973Z,9.10
2022-11-05T06:36:57.630Z,9.00
2022-11-05T06:39:25.717Z,9.73
2022-11-05T06:42:19.456Z,10.05
2022-11-05T06:44:38.996Z,9.73
2022-11-05T06:47:05.655Z,10.60
2022-11-05T06:49:32.321Z,9.95
2022-11-05T06:51:58.998Z,10.20
2022-11-05T06:54:27.016Z,10.00
2022-11-05T06:56:54.881Z,11.32
2022-11-05T06:59:21.750Z,9.63
2022-11-05T07:01:48.471Z,9.60
2022-11-05T07:04:15.317Z,9.60
2022-11-05T07:06:41.961Z,10.45
2022-11-05T07:09:08.660Z,11.23
2022-11-05T07:11:36.643Z,10.50
2022-11-05T07:14:04.795Z,11.60
2022-11-05T07:16:31.464Z,10.40
2022-11-05T07:18:58.148Z,10.95
2022-11-05T07:21:33.105Z,10.10
2022-11-05T07:23:59.930Z,10.03
2022-11-05T07:26:30.496Z,9.15
2022-11-05T07:29:01.532Z,9.05
2022-11-05T07:31:28.313Z,10.27
2022-11-05T07:33:54.977Z,10.02
2022-11-05T07:36:21.664Z,10.40
2022-11-05T07:38:48.291Z,10.45
2022-11-05T07:41:14.944Z,11.98
2022-11-05T07:43:41.578Z,12.48
2022-11-05T07:46:13.662Z,11.68
2022-11-05T07:48:41.256Z,13.13
2022-11-05T07:51:07.930Z,12.13
2022-11-05T07:53:34.580Z,11.35
2022-11-05T07:56:01.284Z,11.80
2022-11-05T07:58:27.944Z,11.13
2022-11-05T08:00:54.749Z,12.03
2022-11-05T08:03:32.891Z,11.73
2022-11-05T08:05:59.701Z,11.30
2022-11-05T08:08:26.486Z,10.68
2022-11-05T08:10:53.092Z,11.30
2022-11-05T08:13:26.119Z,10.70
2022-11-05T08:15:52.801Z,10.23
2022-11-05T08:18:19.448Z,10.30
2022-11-05T08:20:47.665Z,10.57
2022-11-05T08:23:14.798Z,10.50
2022-11-05T08:25:41.897Z,11.17
2022-11-05T08:28:11.159Z,10.90
2022-11-05T08:30:38.167Z,10.00
2022-11-05T08:33:06.785Z,11.82
2022-11-05T08:35:37.678Z,10.13
2022-11-05T08:38:07.507Z,9.97
2022-11-05T08:40:35.882Z,9.65
2022-11-05T08:43:04.823Z,30.48
2022-11-05T08:45:32.144Z,14.93
2022-11-05T08:47:59.522Z,11.25
2022-11-05T08:50:26.250Z,9.80
2022-11-05T08:52:52.886Z,9.80
2022-11-05T08:55:21.060Z,9.57
2022-11-05T08:57:47.707Z,9.93
2022-11-05T09:00:15.409Z,10.02
2022-11-05T09:02:42.303Z,9.23
2022-11-05T09:05:09.305Z,10.63
2022-11-05T09:07:35.901Z,10.60
2022-11-05T09:10:02.613Z,10.32
2022-11-05T09:12:30.692Z,12.05
2022-11-05T09:14:57.330Z,11.77
2022-11-05T09:17:24.025Z,10.82
2022-11-05T09:19:50.809Z,11.52
2022-11-05T09:22:17.482Z,10.70
2022-11-05T09:24:44.139Z,10.30
2022-11-05T09:27:11.655Z,11.13
2022-11-05T09:29:40.130Z,9.45
2022-11-05T09:32:07.527Z,8.95
2022-11-05T09:34:34.599Z,10.38
2022-11-05T09:37:02.021Z,9.75
2022-11-05T09:39:28.727Z,8.63
2022-11-05T09:42:02.094Z,8.77
2022-11-05T09:44:37.300Z,8.52
2022-11-05T09:47:08.643Z,8.45
2022-11-05T09:49:38.930Z,8.68
2022-11-05T09:52:09.956Z,8.40
2022-11-05T09:54:37.582Z,8.15
2022-11-05T09:57:11.573Z,8.07
2022-11-05T09:59:44.425Z,7.85
2022-11-05T10:02:17.824Z,8.57
2022-11-05T10:04:47.842Z,8.67
2022-11-05T10:07:20.603Z,8.80
2022-11-05T10:09:51.240Z,8.70
2022-11-05T10:12:24.251Z,8.30
2022-11-05T10:14:59.229Z,8.23
2022-11-05T10:17:28.719Z,8.00
2022-11-05T10:20:09.564Z,8.90
2022-11-05T10:22:36.769Z,8.73
2022-11-05T10:25:16.951Z,8.65
2022-11-05T10:27:47.832Z,9.20
2022-11-05T10:30:14.773Z,7.73
2022-11-05T10:32:44.565Z,8.43
2022-11-05T10:35:14.485Z,7.10
2022-11-05T10:37:41.269Z,8.50
2022-11-05T10:40:16.772Z,8.40
2022-11-05T10:42:55.692Z,8.23
2022-11-05T10:45:30.647Z,7.93
2022-11-05T10:48:10.250Z,8.57
2022-11-05T10:50:37.051Z,8.05
2022-11-05T10:53:11.682Z,8.32
2022-11-05T10:55:42.378Z,8.13
2022-11-05T10:58:18.020Z,8.77
2022-11-05T11:00:59.609Z,8.10
2022-11-05T11:03:39.812Z,7.28
2022-11-05T11:06:17.133Z,7.70
2022-11-05T11:08:46.396Z,7.40
2022-11-05T11:11:26.274Z,8.52
2022-11-05T11:14:00.779Z,8.70
2022-11-05T11:16:29.026Z,8.15
2022-11-05T11:18:58.283Z,8.77
2022-11-05T11:21:25.082Z,7.27
2022-11-05T11:23:56.309Z,6.78
2022-11-05T11:26:24.332Z,6.97
2022-11-05T11:28:57.060Z,6.35
2022-11-05T11:31:26.642Z,5.82
2022-11-05T11:34:00.112Z,6.53
2022-11-05T11:36:33.238Z,6.35
2022-11-05T11:39:01.545Z,6.10
2022-11-05T11:41:33.336Z,6.25
2022-11-05T11:44:04.556Z,5.55
2022-11-05T11:46:33.909Z,5.20
2022-11-05T11:49:02.762Z,5.50
2022-11-05T11:51:32.698Z,4.85
2022-11-05T11:54:00.641Z,4.20
2022-11-05T11:56:28.227Z,4.75
2022-11-05T11:58:56.049Z,4.60
2022-11-05T12:01:41.855Z,4.75
2022-11-05T12:04:21.285Z,4.80
2022-11-05T12:06:54.669Z,4.95
2022-11-05T12:09:31.185Z,4.75
2022-11-05T12:12:02.979Z,4.73
2022-11-05T12:14:36.882Z,5.05
2022-11-05T12:17:25.816Z,4.70
2022-11-05T12:20:36.148Z,5.13
2022-11-05T12:23:25.901Z,4.90
2022-11-05T12:26:01.052Z,4.33
2022-11-05T12:29:12.295Z,4.95
2022-11-05T12:31:38.940Z,4.60
2022-11-05T12:34:22.587Z,4.63
2022-11-05T12:37:04.348Z,4.47
2022-11-05T12:39:46.340Z,5.10
2022-11-05T12:42:27.922Z,5.75
2022-11-05T12:45:01.299Z,4.80
2022-11-05T12:47:46.870Z,5.47
2022-11-05T12:50:27.165Z,5.72
2022-11-05T12:53:15.731Z,4.90
2022-11-05T12:55:48.530Z,5.72
2022-11-05T12:58:20.209Z,4.60
2022-11-05T13:00:51.270Z,4.68
2022-11-05T13:03:27.272Z,4.18
2022-11-05T13:06:04.515Z,4.40
2022-11-05T13:08:42.927Z,4.30
2022-11-05T13:11:17.443Z,4.20
2022-11-05T13:13:48.897Z,4.40
2022-11-05T13:16:23.235Z,4.00
2022-11-05T13:18:54.153Z,3.83
2022-11-05T13:21:23.464Z,4.35
2022-11-05T13:23:55.465Z,5.03
2022-11-05T13:26:27.131Z,3.42
2022-11-05T13:28:57.980Z,3.10
2022-11-05T13:31:30.048Z,3.00
2022-11-05T13:33:57.513Z,2.72
2022-11-05T13:36:28.575Z,2.50
2022-11-05T13:39:00.427Z,2.40
2022-11-05T13:41:36.393Z,2.10
2022-11-05T13:44:20.051Z,2.13
2022-11-05T13:47:11.873Z,2.60
2022-11-05T13:50:06.058Z,2.50
2022-11-05T13:52:58.397Z,2.40
2022-11-05T13:55:41.217Z,2.15
2022-11-05T13:58:41.561Z,2.20
2022-11-05T14:01:20.215Z,1.75
2022-11-05T14:03:48.489Z,2.05
2022-11-05T14:06:23.587Z,2.25
2022-11-05T14:08:50.367Z,3.60
2022-11-05T14:11:25.249Z,2.70
2022-11-05T14:13:56.492Z,3.00
2022-11-05T14:16:24.633Z,3.20
2022-11-05T14:18:55.154Z,2.90
2022-11-05T14:21:47.751Z,2.40
2022-11-05T14:24:42.091Z,1.00
2022-11-05T14:27:46.344Z,0.90
2022-11-05T14:30:42.041Z,1.60
2022-11-05T14:33:29.262Z,1.08
2022-11-05T14:36:29.882Z,1.40
2022-11-05T14:39:04.377Z,2.13
2022-11-05T14:41:31.374Z,2.30
2022-11-05T14:44:05.130Z,2.10
2022-11-05T14:46:41.357Z,1.58
2022-11-05T14:49:17.749Z,1.55
2022-11-05T14:51:47.834Z,1.40
2022-11-05T14:54:21.052Z,1.50
2022-11-05T14:56:55.874Z,1.63
2022-11-05T14:59:50.856Z,1.70
2022-11-05T15:02:21.771Z,3.25
2022-11-05T15:04:48.704Z,3.03
2022-11-05T15:07:36.897Z,3.13
2022-11-05T15:10:10.974Z,3.40
2022-11-05T15:12:43.497Z,3.80
2022-11-05T15:15:22.341Z,3.50
2022-11-05T15:17:59.342Z,3.20
2022-11-05T15:20:39.646Z,3.42
2022-11-05T15:23:11.437Z,3.10
2022-11-05T15:25:50.394Z,3.35
2022-11-05T15:28:27.179Z,4.00
2022-11-05T15:31:00.804Z,4.23
2022-11-05T15:33:27.821Z,3.13
2022-11-05T15:35:55.482Z,3.08
2022-11-05T15:38:27.900Z,7.32
2022-11-05T15:40:59.310Z,7.55
2022-11-05T15:43:26.024Z,6.80
2022-11-05T15:46:06.494Z,6.63
2022-11-05T15:48:33.991Z,7.13
2022-11-05T15:51:01.165Z,7.00
2022-11-05T15:53:56.000Z,7.45
2022-11-05T15:56:27.004Z,7.30
2022-11-05T15:58:55.831Z,7.30
2022-11-05T16:01:26.977Z,9.13
2022-11-05T16:03:56.634Z,8.88
2022-11-05T16:06:28.601Z,8.75
2022-11-05T16:08:55.452Z,7.73
2022-11-05T16:14:19.765Z,6.20
2022-11-05T16:16:47.897Z,7.20
2022-11-05T16:19:40.495Z,8.13
2022-11-05T16:22:07.959Z,8.37
2022-11-05T16:24:41.100Z,9.27
2022-11-05T16:27:19.157Z,10.65
2022-11-05T16:29:52.652Z,11.80
2022-11-05T16:32:26.888Z,9.05
2022-11-05T16:34:59.109Z,8.63
2022-11-05T16:37:27.069Z,11.77
2022-11-05T16:39:57.381Z,11.93
2022-11-05T16:42:37.200Z,11.32
2022-11-05T16:45:04.771Z,13.20
2022-11-05T16:47:32.809Z,13.53
2022-11-05T16:49:59.469Z,10.95
2022-11-05T16:52:26.248Z,10.05
2022-11-05T16:54:52.881Z,10.85
2022-11-05T16:57:24.796Z,9.68
2022-11-05T16:59:51.447Z,10.73
2022-11-05T17:02:18.327Z,9.65
2022-11-05T17:04:46.600Z,10.15
2022-11-05T17:07:13.286Z,10.95
2022-11-05T17:09:39.922Z,10.38
2022-11-05T17:12:06.865Z,10.10
2022-11-05T17:14:33.565Z,9.05
2022-11-05T17:17:00.857Z,9.90
2022-11-05T17:19:27.553Z,11.02
2022-11-05T17:21:55.639Z,11.10
2022-11-05T17:24:22.426Z,10.93
2022-11-05T17:26:49.274Z,9.95
2022-11-05T17:29:16.165Z,9.45
2022-11-05T17:31:42.821Z,8.02
2022-11-05T17:34:10.562Z,7.88
2022-11-05T17:36:37.197Z,8.10
2022-11-05T17:39:05.345Z,9.05
2022-11-05T17:41:32.030Z,11.10
2022-11-05T17:43:58.910Z,12.82
2022-11-05T17:46:25.599Z,12.50
2022-11-05T17:48:52.247Z,12.23
2022-11-05T17:51:19.978Z,12.27
2022-11-05T17:53:47.466Z,12.00
2022-11-05T17:56:28.926Z,13.20
2022-11-05T17:59:00.031Z,15.02
2022-11-05T18:01:28.988Z,15.80
2022-11-05T18:03:55.765Z,16.17
2022-11-05T18:06:22.439Z,17.77
2022-11-05T18:08:49.184Z,17.55
2022-11-05T18:11:17.399Z,18.13
2022-11-05T18:13:44.152Z,16.27
2022-11-05T18:16:15.587Z,13.68
2022-11-05T18:18:43.177Z,10.50
2022-11-05T18:21:09.933Z,11.07
2022-11-05T18:23:36.641Z,9.52
2022-11-05T18:26:08.697Z,9.57
2022-11-05T18:28:36.880Z,8.32
2022-11-05T18:31:03.891Z,8.80
2022-11-05T18:33:30.647Z,7.93
2022-11-05T18:35:57.361Z,8.65
2022-11-05T18:38:24.000Z,7.43
2022-11-05T18:40:50.696Z,8.32
2022-11-05T18:43:17.387Z,7.68
2022-11-05T18:45:45.436Z,8.35
2022-11-05T18:48:12.354Z,8.60
2022-11-05T18:50:39.976Z,9.10
2022-11-05T18:53:06.659Z,10.45
2022-11-05T18:55:33.302Z,9.88
2022-11-05T18:57:59.969Z,10.32
2022-11-05T19:00:26.631Z,13.20
2022-11-05T19:02:55.076Z,12.43
2022-11-05T19:05:29.057Z,13.38
2022-11-05T19:07:56.411Z,14.20
2022-11-05T19:10:23.259Z,12.73
2022-11-05T19:12:49.928Z,12.25
2022-11-05T19:15:16.638Z,10.90
2022-11-05T19:17:43.477Z,11.45
2022-11-05T19:20:12.056Z,12.13
2022-11-05T19:22:38.735Z,10.48
2022-11-05T19:25:06.576Z,10.63
2022-11-05T19:27:35.205Z,10.33
2022-11-05T19:30:01.914Z,9.93
2022-11-05T19:32:28.610Z,9.85
2022-11-05T19:34:55.297Z,11.30
2022-11-05T19:37:23.362Z,9.77
2022-11-05T19:39:50.022Z,10.30
2022-11-05T19:42:16.944Z,9.27
2022-11-05T19:44:43.618Z,11.10
2022-11-05T19:47:10.505Z,10.77
2022-11-05T19:49:37.157Z,11.52
2022-11-05T19:52:03.984Z,12.00
2022-11-05T19:54:32.012Z,13.27
2022-11-05T19:56:58.784Z,15.82
2022-11-05T19:59:25.514Z,15.50
2022-11-05T20:01:52.314Z,16.42
2022-11-05T20:04:19.071Z,17.60
2022-11-05T20:06:45.786Z,17.35
2022-11-05T20:09:23.151Z,15.80
2022-11-05T20:11:52.531Z,14.35
2022-11-05T20:14:19.161Z,14.73
2022-11-05T20:16:46.497Z,13.60
2022-11-05T20:19:15.686Z,13.35
2022-11-05T20:21:42.565Z,13.00
2022-11-05T20:24:10.877Z,12.75
2022-11-05T20:26:38.043Z,15.10
2022-11-05T20:29:06.392Z,14.80
2022-11-05T20:31:33.506Z,13.95
2022-11-05T20:34:00.187Z,12.73
2022-11-05T20:36:27.005Z,10.98
2022-11-05T20:38:55.410Z,9.45
2022-11-05T20:41:22.764Z,7.93
2022-11-05T20:43:49.713Z,7.80
2022-11-05T20:46:19.797Z,7.07
2022-11-05T20:48:46.487Z,7.07
2022-11-05T20:51:15.369Z,8.15
2022-11-05T20:53:42.366Z,8.70
2022-11-05T20:56:15.897Z,9.32
2022-11-05T20:58:42.578Z,10.32
2022-11-05T21:01:12.254Z,12.18
2022-11-05T21:03:40.326Z,12.80
2022-11-05T21:06:07.162Z,12.73
2022-11-05T21:08:34.290Z,12.55
2022-11-05T21:11:01.591Z,12.18
2022-11-05T21:13:28.532Z,11.80
2022-11-05T21:15:57.464Z,12.73
2022-11-05T21:18:26.356Z,11.30
2022-11-05T21:20:54.700Z,9.80
2022-11-05T21:23:21.726Z,8.48
2022-11-05T21:25:48.602Z,8.88
2022-11-05T21:28:16.137Z,7.38
2022-11-05T21:30:44.340Z,7.83
2022-11-05T21:33:11.553Z,8.20
2022-11-05T21:35:39.381Z,7.82
2022-11-05T21:38:07.700Z,6.60
2022-11-05T21:40:34.560Z,6.80
2022-11-05T21:43:01.309Z,8.97
2022-11-05T21:45:28.231Z,8.77
2022-11-05T21:47:55.253Z,8.27
2022-11-05T21:50:22.373Z,7.20
2022-11-05T21:52:49.045Z,8.18
2022-11-05T21:55:17.162Z,7.83
2022-11-05T21:57:43.851Z,7.57
2022-11-05T22:00:11.905Z,7.50
2022-11-05T22:02:38.623Z,7.43
2022-11-05T22:05:06.795Z,7.45
2022-11-05T22:07:34.977Z,7.27
2022-11-05T22:10:03.057Z,7.90
2022-11-05T22:12:31.130Z,7.18
2022-11-05T22:14:58.207Z,7.68
2022-11-05T22:17:24.881Z,7.50
2022-11-05T22:19:51.855Z,7.33
2022-11-05T22:22:18.553Z,7.93
2022-11-05T22:24:45.634Z,7.43
2022-11-05T22:27:14.087Z,7.28
2022-11-05T22:29:42.361Z,9.45
2022-11-05T22:32:10.346Z,9.50
2022-11-05T22:34:37.000Z,9.40
2022-11-05T22:37:03.777Z,8.95
2022-11-05T22:39:30.518Z,8.32
2022-11-05T22:41:58.050Z,7.88
2022-11-05T22:44:26.424Z,8.77
2022-11-05T22:46:54.780Z,7.38
2022-11-05T22:49:21.455Z,8.10
2022-11-05T22:51:48.083Z,8.18
2022-11-05T22:54:14.834Z,7.97
2022-11-05T22:56:42.609Z,7.97
2022-11-05T22:59:13.782Z,8.75
2022-11-05T23:01:41.206Z,8.60
2022-11-05T23:04:10.086Z,7.70
2022-11-05T23:06:36.756Z,7.85
2022-11-05T23:09:05.843Z,9.73
2022-11-05T23:11:32.509Z,9.23
2022-11-05T23:13:59.198Z,9.95
2022-11-05T23:16:25.888Z,11.00
2022-11-05T23:18:52.608Z,8.98
2022-11-05T23:21:23.044Z,9.10
2022-11-05T23:23:50.081Z,9.85
2022-11-05T23:26:16.768Z,10.18
2022-11-05T23:28:43.444Z,9.85
2022-11-05T23:31:10.109Z,10.48
2022-11-05T23:33:37.386Z,12.00
2022-11-05T23:36:04.318Z,12.32
2022-11-05T23:38:32.330Z,11.10
2022-11-05T23:41:00.830Z,11.23
2022-11-05T23:43:27.501Z,14.32
2022-11-05T23:45:54.213Z,11.87
2022-11-05T23:48:25.255Z,12.52
2022-11-05T23:50:58.474Z,14.15
2022-11-05T23:53:25.490Z,12.98
2022-11-05T23:55:57.813Z,13.90
2022-11-05T23:58:24.500Z,13.03
